sensor_id;sensor_type;location;lat;lon;timestamp;pressure;altitude;pressure_sealevel;temperature;humidity
18500;BME280;9379;52.134;11.576;2023-04-20T00:01:55;101359.47;;;8.94;99.21
18500;BME280;9379;52.134;11.576;2023-04-20T00:04:23;101364.34;;;8.75;99.96
18500;BME280;9379;52.134;11.576;2023-04-20T00:06:49;101359.03;;;8.62;100.00
18500;BME280;9379;52.134;11.576;2023-04-20T00:09:17;101373.88;;;8.77;100.00
18500;BME280;9379;52.134;11.576;2023-04-20T00:11:46;101371.34;;;9.01;100.00
18500;BME280;9379;52.134;11.576;2023-04-20T00:14:15;101367.63;;;9.29;99.37
18500;BME280;9379;52.134;11.576;2023-04-20T00:16:45;101324.38;;;9.16;98.25
18500;BME280;9379;52.134;11.576;2023-04-20T00:19:12;101337.53;;;9.05;99.29
18500;BME280;9379;52.134;11.576;2023-04-20T00:21:39;101322.66;;;8.90;99.00
18500;BME280;9379;52.134;11.576;2023-04-20T00:24:10;101365.06;;;9.41;97.83
18500;BME280;9379;52.134;11.576;2023-04-20T00:26:39;101329.00;;;9.25;97.82
18500;BME280;9379;52.134;11.576;2023-04-20T00:29:06;101364.00;;;9.80;96.58
18500;BME280;9379;52.134;11.576;2023-04-20T00:31:36;101332.31;;;8.65;100.00
18500;BME280;9379;52.134;11.576;2023-04-20T00:34:08;101332.31;;;8.78;99.66
18500;BME280;9379;52.134;11.576;2023-04-20T00:36:35;101362.13;;;9.07;100.00
18500;BME280;9379;52.134;11.576;2023-04-20T00:39:04;101325.75;;;8.71;100.00
18500;BME280;9379;52.134;11.576;2023-04-20T00:41:31;101361.38;;;9.18;99.02
18500;BME280;9379;52.134;11.576;2023-04-20T00:43:57;101337.72;;;9.02;99.12
18500;BME280;9379;52.134;11.576;2023-04-20T00:46:26;101326.03;;;9.30;97.42
18500;BME280;9379;52.134;11.576;2023-04-20T00:48:55;101338.09;;;9.34;97.72
18500;BME280;9379;52.134;11.576;2023-04-20T00:51:26;101319.72;;;8.94;98.79
18500;BME280;9379;52.134;11.576;2023-04-20T00:53:54;101326.88;;;9.30;98.44
18500;BME280;9379;52.134;11.576;2023-04-20T00:56:21;101312.59;;;9.07;97.52
18500;BME280;9379;52.134;11.576;2023-04-20T00:58:52;101323.22;;;8.95;99.00
18500;BME280;9379;52.134;11.576;2023-04-20T01:01:18;101314.09;;;8.99;99.12
18500;BME280;9379;52.134;11.576;2023-04-20T01:03:45;101313.00;;;9.14;98.43
18500;BME280;9379;52.134;11.576;2023-04-20T01:06:12;101325.22;;;8.91;98.77
18500;BME280;9379;52.134;11.576;2023-04-20T01:08:50;101300.97;;;8.72;100.00
18500;BME280;9379;52.134;11.576;2023-04-20T01:11:17;101303.59;;;8.97;99.46
18500;BME280;9379;52.134;11.576;2023-04-20T01:13:47;101305.50;;;8.83;100.00
18500;BME280;9379;52.134;11.576;2023-04-20T01:16:14;101351.06;;;9.26;99.37
18500;BME280;9379;52.134;11.576;2023-04-20T01:18:42;101328.63;;;9.06;98.78
18500;BME280;9379;52.134;11.576;2023-04-20T01:21:11;101350.03;;;9.16;99.02
18500;BME280;9379;52.134;11.576;2023-04-20T01:23:39;101345.69;;;9.15;99.52
18500;BME280;9379;52.134;11.576;2023-04-20T01:26:06;101344.81;;;9.14;100.00
18500;BME280;9379;52.134;11.576;2023-04-20T01:28:34;101313.94;;;9.26;99.06
18500;BME280;9379;52.134;11.576;2023-04-20T01:31:05;101303.03;;;9.18;98.39
18500;BME280;9379;52.134;11.576;2023-04-20T01:33:32;101287.88;;;9.07;98.53
18500;BME280;9379;52.134;11.576;2023-04-20T01:35:59;101304.84;;;9.17;98.59
18500;BME280;9379;52.134;11.576;2023-04-20T01:38:29;101274.94;;;9.15;97.02
18500;BME280;9379;52.134;11.576;2023-04-20T01:40:58;101261.53;;;8.80;98.50
18500;BME280;9379;52.134;11.576;2023-04-20T01:43:26;101292.97;;;9.10;98.56
18500;BME280;9379;52.134;11.576;2023-04-20T01:45:56;101306.09;;;9.12;98.92
18500;BME280;9379;52.134;11.576;2023-04-20T01:48:23;101285.28;;;8.82;99.48
18500;BME280;9379;52.134;11.576;2023-04-20T01:50:52;101299.22;;;9.09;98.91
18500;BME280;9379;52.134;11.576;2023-04-20T01:53:19;101267.91;;;9.14;97.73
18500;BME280;9379;52.134;11.576;2023-04-20T01:55:46;101263.41;;;9.40;96.59
18500;BME280;9379;52.134;11.576;2023-04-20T01:58:14;101256.72;;;9.34;97.06
18500;BME280;9379;52.134;11.576;2023-04-20T02:00:41;101297.63;;;9.80;95.96
18500;BME280;9379;52.134;11.576;2023-04-20T02:03:10;101292.78;;;9.50;96.38
18500;BME280;9379;52.134;11.576;2023-04-20T02:05:40;101292.25;;;9.45;97.54
18500;BME280;9379;52.134;11.576;2023-04-20T02:08:07;101307.81;;;9.62;96.23
18500;BME280;9379;52.134;11.576;2023-04-20T02:10:40;101312.06;;;9.52;96.51
18500;BME280;9379;52.134;11.576;2023-04-20T02:13:09;101278.59;;;9.38;96.44
18500;BME280;9379;52.134;11.576;2023-04-20T02:15:38;101301.53;;;9.63;97.22
18500;BME280;9379;52.134;11.576;2023-04-20T02:18:07;101295.28;;;9.27;97.75
18500;BME280;9379;52.134;11.576;2023-04-20T02:20:37;101261.38;;;9.07;97.39
18500;BME280;9379;52.134;11.576;2023-04-20T02:23:07;101326.38;;;9.00;99.82
18500;BME280;9379;52.134;11.576;2023-04-20T02:25:39;101282.81;;;8.78;99.79
18500;BME280;9379;52.134;11.576;2023-04-20T02:28:06;101299.25;;;8.71;100.00
18500;BME280;9379;52.134;11.576;2023-04-20T02:30:37;101284.19;;;8.84;100.00
18500;BME280;9379;52.134;11.576;2023-04-20T02:33:06;101320.97;;;9.01;100.00
18500;BME280;9379;52.134;11.576;2023-04-20T02:35:33;101294.56;;;8.87;100.00
18500;BME280;9379;52.134;11.576;2023-04-20T02:38:00;101314.78;;;9.14;100.00
18500;BME280;9379;52.134;11.576;2023-04-20T02:40:26;101308.56;;;9.51;98.97
18500;BME280;9379;52.134;11.576;2023-04-20T02:42:56;101279.19;;;9.42;97.19
18500;BME280;9379;52.134;11.576;2023-04-20T02:45:25;101280.47;;;9.36;97.66
18500;BME280;9379;52.134;11.576;2023-04-20T02:47:58;101268.94;;;9.24;97.84
18500;BME280;9379;52.134;11.576;2023-04-20T02:50:31;101270.63;;;9.25;96.91
18500;BME280;9379;52.134;11.576;2023-04-20T02:52:59;101317.16;;;9.55;96.77
18500;BME280;9379;52.134;11.576;2023-04-20T02:55:26;101274.00;;;9.03;97.37
18500;BME280;9379;52.134;11.576;2023-04-20T02:57:55;101299.69;;;9.40;97.38
18500;BME280;9379;52.134;11.576;2023-04-20T03:00:25;101260.13;;;8.87;97.17
18500;BME280;9379;52.134;11.576;2023-04-20T03:02:54;101301.13;;;9.07;97.16
18500;BME280;9379;52.134;11.576;2023-04-20T03:05:21;101286.53;;;8.76;99.15
18500;BME280;9379;52.134;11.576;2023-04-20T03:07:49;101291.16;;;9.11;97.53
18500;BME280;9379;52.134;11.576;2023-04-20T03:10:21;101282.06;;;8.89;97.28
18500;BME280;9379;52.134;11.576;2023-04-20T03:12:55;101269.34;;;8.94;97.55
18500;BME280;9379;52.134;11.576;2023-04-20T03:15:24;101313.22;;;9.11;97.89
18500;BME280;9379;52.134;11.576;2023-04-20T03:17:51;101294.16;;;8.68;99.03
18500;BME280;9379;52.134;11.576;2023-04-20T03:20:18;101292.38;;;8.68;99.24
18500;BME280;9379;52.134;11.576;2023-04-20T03:22:50;101296.91;;;9.04;97.32
18500;BME280;9379;52.134;11.576;2023-04-20T03:25:17;101297.94;;;9.27;96.63
18500;BME280;9379;52.134;11.576;2023-04-20T03:27:44;101280.75;;;9.20;96.41
18500;BME280;9379;52.134;11.576;2023-04-20T03:30:16;101290.31;;;9.47;95.15
18500;BME280;9379;52.134;11.576;2023-04-20T03:32:46;101282.97;;;9.14;96.41
18500;BME280;9379;52.134;11.576;2023-04-20T03:35:15;101293.19;;;9.44;95.55
18500;BME280;9379;52.134;11.576;2023-04-20T03:37:45;101307.66;;;9.40;95.96
18500;BME280;9379;52.134;11.576;2023-04-20T03:40:13;101293.13;;;8.70;98.31
18500;BME280;9379;52.134;11.576;2023-04-20T03:42:40;101336.03;;;8.88;99.75
18500;BME280;9379;52.134;11.576;2023-04-20T03:45:15;101320.56;;;8.82;99.38
18500;BME280;9379;52.134;11.576;2023-04-20T03:47:51;101319.59;;;8.96;99.46
18500;BME280;9379;52.134;11.576;2023-04-20T03:50:18;101302.53;;;8.62;100.00
18500;BME280;9379;52.134;11.576;2023-04-20T03:52:48;101295.22;;;8.78;99.64
18500;BME280;9379;52.134;11.576;2023-04-20T03:55:16;101310.16;;;8.66;100.00
18500;BME280;9379;52.134;11.576;2023-04-20T03:57:43;101295.53;;;8.73;100.00
18500;BME280;9379;52.134;11.576;2023-04-20T04:00:11;101309.41;;;8.90;100.00
18500;BME280;9379;52.134;11.576;2023-04-20T04:02:38;101281.31;;;8.87;99.24
18500;BME280;9379;52.134;11.576;2023-04-20T04:05:09;101295.53;;;8.99;98.87
18500;BME280;9379;52.134;11.576;2023-04-20T04:07:36;101331.16;;;8.95;98.86
18500;BME280;9379;52.134;11.576;2023-04-20T04:10:03;101323.81;;;9.11;99.25
18500;BME280;9379;52.134;11.576;2023-04-20T04:12:32;101337.41;;;9.06;99.88
18500;BME280;9379;52.134;11.576;2023-04-20T04:14:59;101335.63;;;8.94;99.32
18500;BME280;9379;52.134;11.576;2023-04-20T04:17:26;101316.06;;;9.21;98.66
18500;BME280;9379;52.134;11.576;2023-04-20T04:19:54;101325.44;;;8.75;100.00
18500;BME280;9379;52.134;11.576;2023-04-20T04:22:20;101292.88;;;8.86;99.67
18500;BME280;9379;52.134;11.576;2023-04-20T04:24:48;101331.38;;;9.04;99.86
18500;BME280;9379;52.134;11.576;2023-04-20T04:27:15;101298.69;;;8.91;99.07
18500;BME280;9379;52.134;11.576;2023-04-20T04:29:45;101296.78;;;9.19;97.59
18500;BME280;9379;52.134;11.576;2023-04-20T04:32:14;101328.72;;;9.04;99.10
18500;BME280;9379;52.134;11.576;2023-04-20T04:34:41;101309.56;;;9.25;96.95
18500;BME280;9379;52.134;11.576;2023-04-20T04:37:12;101311.44;;;8.86;98.88
18500;BME280;9379;52.134;11.576;2023-04-20T04:39:39;101299.88;;;9.00;99.25
18500;BME280;9379;52.134;11.576;2023-04-20T04:42:06;101338.69;;;9.01;99.77
18500;BME280;9379;52.134;11.576;2023-04-20T04:44:33;101334.56;;;8.97;100.00
18500;BME280;9379;52.134;11.576;2023-04-20T04:47:02;101327.28;;;9.24;98.41
18500;BME280;9379;52.134;11.576;2023-04-20T04:49:36;101313.09;;;9.13;97.90
18500;BME280;9379;52.134;11.576;2023-04-20T04:52:06;101349.03;;;9.42;98.46
18500;BME280;9379;52.134;11.576;2023-04-20T04:54:33;101355.13;;;9.19;99.38
18500;BME280;9379;52.134;11.576;2023-04-20T04:57:02;101356.50;;;9.12;99.45
18500;BME280;9379;52.134;11.576;2023-04-20T04:59:29;101350.13;;;9.14;99.88
18500;BME280;9379;52.134;11.576;2023-04-20T05:01:58;101318.03;;;8.93;100.00
18500;BME280;9379;52.134;11.576;2023-04-20T05:04:27;101330.72;;;9.01;98.88
18500;BME280;9379;52.134;11.576;2023-04-20T05:06:54;101322.28;;;8.70;100.00
18500;BME280;9379;52.134;11.576;2023-04-20T05:09:21;101345.38;;;8.94;100.00
18500;BME280;9379;52.134;11.576;2023-04-20T05:11:51;101370.47;;;9.14;100.00
18500;BME280;9379;52.134;11.576;2023-04-20T05:14:18;101334.69;;;8.83;100.00
18500;BME280;9379;52.134;11.576;2023-04-20T05:16:45;101332.13;;;8.94;99.41
18500;BME280;9379;52.134;11.576;2023-04-20T05:19:14;101367.91;;;9.50;98.43
18500;BME280;9379;52.134;11.576;2023-04-20T05:21:45;101344.19;;;9.11;98.32
18500;BME280;9379;52.134;11.576;2023-04-20T05:24:12;101350.25;;;8.87;99.46
18500;BME280;9379;52.134;11.576;2023-04-20T05:26:39;101360.81;;;9.38;97.91
18500;BME280;9379;52.134;11.576;2023-04-20T05:29:06;101377.41;;;9.16;97.03
18500;BME280;9379;52.134;11.576;2023-04-20T05:31:33;101385.63;;;9.37;97.08
18500;BME280;9379;52.134;11.576;2023-04-20T05:34:00;101342.84;;;8.92;97.60
18500;BME280;9379;52.134;11.576;2023-04-20T05:36:29;101368.47;;;9.30;97.52
18500;BME280;9379;52.134;11.576;2023-04-20T05:38:59;101351.03;;;9.51;95.71
18500;BME280;9379;52.134;11.576;2023-04-20T05:41:26;101390.34;;;9.08;97.28
18500;BME280;9379;52.134;11.576;2023-04-20T05:43:54;101386.28;;;9.41;97.38
18500;BME280;9379;52.134;11.576;2023-04-20T05:46:21;101376.03;;;9.60;95.36
18500;BME280;9379;52.134;11.576;2023-04-20T05:48:48;101355.03;;;8.95;95.19
18500;BME280;9379;52.134;11.576;2023-04-20T05:51:20;101393.53;;;9.75;94.92
18500;BME280;9379;52.134;11.576;2023-04-20T05:53:47;101393.81;;;9.83;94.55
18500;BME280;9379;52.134;11.576;2023-04-20T05:56:17;101395.53;;;9.84;93.37
18500;BME280;9379;52.134;11.576;2023-04-20T05:58:45;101399.00;;;9.48;94.90
18500;BME280;9379;52.134;11.576;2023-04-20T06:01:15;101385.16;;;9.69;92.87
18500;BME280;9379;52.134;11.576;2023-04-20T06:03:44;101362.44;;;9.64;93.34
18500;BME280;9379;52.134;11.576;2023-04-20T06:06:15;101406.59;;;10.02;93.45
18500;BME280;9379;52.134;11.576;2023-04-20T06:08:42;101381.19;;;9.87;93.74
18500;BME280;9379;52.134;11.576;2023-04-20T06:11:12;101396.53;;;10.18;91.94
18500;BME280;9379;52.134;11.576;2023-04-20T06:13:41;101383.09;;;9.85;92.09
18500;BME280;9379;52.134;11.576;2023-04-20T06:16:10;101365.94;;;9.28;93.60
18500;BME280;9379;52.134;11.576;2023-04-20T06:18:37;101370.31;;;10.73;89.93
18500;BME280;9379;52.134;11.576;2023-04-20T06:21:04;101368.94;;;10.91;87.12
18500;BME280;9379;52.134;11.576;2023-04-20T06:23:34;101370.78;;;10.56;87.71
18500;BME280;9379;52.134;11.576;2023-04-20T06:26:04;101349.06;;;10.84;86.73
18500;BME280;9379;52.134;11.576;2023-04-20T06:28:36;101373.31;;;11.48;86.47
18500;BME280;9379;52.134;11.576;2023-04-20T06:31:12;101401.38;;;12.29;81.89
18500;BME280;9379;52.134;11.576;2023-04-20T06:33:46;101406.22;;;11.47;81.04
18500;BME280;9379;52.134;11.576;2023-04-20T06:36:22;101394.56;;;11.03;83.90
18500;BME280;9379;52.134;11.576;2023-04-20T06:38:56;101408.22;;;10.29;89.42
18500;BME280;9379;52.134;11.576;2023-04-20T06:41:29;101370.59;;;10.35;87.87
18500;BME280;9379;52.134;11.576;2023-04-20T06:43:58;101371.03;;;10.29;87.50
18500;BME280;9379;52.134;11.576;2023-04-20T06:46:28;101386.22;;;10.50;88.78
18500;BME280;9379;52.134;11.576;2023-04-20T06:48:57;101378.06;;;10.17;86.98
18500;BME280;9379;52.134;11.576;2023-04-20T06:51:26;101376.06;;;9.97;87.50
18500;BME280;9379;52.134;11.576;2023-04-20T06:53:53;101419.59;;;10.55;88.12
18500;BME280;9379;52.134;11.576;2023-04-20T06:56:21;101396.66;;;10.17;85.97
18500;BME280;9379;52.134;11.576;2023-04-20T06:58:47;101387.69;;;10.55;86.02
18500;BME280;9379;52.134;11.576;2023-04-20T07:01:14;101410.53;;;10.57;86.79
18500;BME280;9379;52.134;11.576;2023-04-20T07:03:44;101394.25;;;10.14;86.35
18500;BME280;9379;52.134;11.576;2023-04-20T07:06:11;101387.59;;;10.08;86.82
18500;BME280;9379;52.134;11.576;2023-04-20T07:08:39;101401.16;;;10.40;84.07
18500;BME280;9379;52.134;11.576;2023-04-20T07:11:10;101431.34;;;10.39;86.28
18500;BME280;9379;52.134;11.576;2023-04-20T07:13:38;101393.31;;;9.78;85.09
18500;BME280;9379;52.134;11.576;2023-04-20T07:16:05;101403.00;;;10.51;82.77
18500;BME280;9379;52.134;11.576;2023-04-20T07:18:34;101383.25;;;9.94;84.99
18500;BME280;9379;52.134;11.576;2023-04-20T07:21:02;101413.84;;;10.72;84.81
18500;BME280;9379;52.134;11.576;2023-04-20T07:23:29;101373.16;;;11.05;83.28
18500;BME280;9379;52.134;11.576;2023-04-20T07:25:56;101387.25;;;10.72;83.77
18500;BME280;9379;52.134;11.576;2023-04-20T07:28:23;101422.16;;;10.67;83.14
18500;BME280;9379;52.134;11.576;2023-04-20T07:30:55;101381.66;;;10.29;84.04
18500;BME280;9379;52.134;11.576;2023-04-20T07:33:22;101375.16;;;10.33;84.73
18500;BME280;9379;52.134;11.576;2023-04-20T07:35:52;101386.91;;;9.81;83.12
18500;BME280;9379;52.134;11.576;2023-04-20T07:38:20;101382.16;;;9.86;82.99
18500;BME280;9379;52.134;11.576;2023-04-20T07:40:47;101416.88;;;10.43;82.60
18500;BME280;9379;52.134;11.576;2023-04-20T07:43:14;101407.78;;;10.35;83.59
18500;BME280;9379;52.134;11.576;2023-04-20T07:45:42;101411.56;;;10.19;81.28
18500;BME280;9379;52.134;11.576;2023-04-20T07:48:09;101389.06;;;10.71;81.81
18500;BME280;9379;52.134;11.576;2023-04-20T07:50:36;101404.56;;;10.77;78.77
18500;BME280;9379;52.134;11.576;2023-04-20T07:53:07;101394.88;;;10.41;80.60
18500;BME280;9379;52.134;11.576;2023-04-20T07:55:37;101414.78;;;10.36;81.97
18500;BME280;9379;52.134;11.576;2023-04-20T07:58:05;101417.03;;;10.99;81.09
18500;BME280;9379;52.134;11.576;2023-04-20T08:00:32;101415.56;;;10.49;81.24
18500;BME280;9379;52.134;11.576;2023-04-20T08:03:07;101402.00;;;10.41;77.66
18500;BME280;9379;52.134;11.576;2023-04-20T08:05:36;101426.88;;;10.75;79.21
18500;BME280;9379;52.134;11.576;2023-04-20T08:08:03;101428.16;;;10.93;77.91
18500;BME280;9379;52.134;11.576;2023-04-20T08:10:32;101417.66;;;11.03;77.56
18500;BME280;9379;52.134;11.576;2023-04-20T08:13:00;101398.63;;;10.85;77.84
18500;BME280;9379;52.134;11.576;2023-04-20T08:15:28;101438.19;;;10.90;76.28
18500;BME280;9379;52.134;11.576;2023-04-20T08:17:55;101436.50;;;10.89;75.17
18500;BME280;9379;52.134;11.576;2023-04-20T08:20:22;101447.44;;;10.73;77.35
18500;BME280;9379;52.134;11.576;2023-04-20T08:22:49;101439.84;;;10.79;78.03
18500;BME280;9379;52.134;11.576;2023-04-20T08:25:17;101436.78;;;10.73;77.66
18500;BME280;9379;52.134;11.576;2023-04-20T08:27:44;101445.38;;;10.65;76.46
18500;BME280;9379;52.134;11.576;2023-04-20T08:30:13;101427.91;;;10.96;77.45
18500;BME280;9379;52.134;11.576;2023-04-20T08:32:39;101431.19;;;11.11;76.55
18500;BME280;9379;52.134;11.576;2023-04-20T08:35:07;101439.44;;;11.19;74.93
18500;BME280;9379;52.134;11.576;2023-04-20T08:37:36;101441.06;;;10.87;74.39
18500;BME280;9379;52.134;11.576;2023-04-20T08:40:07;101439.56;;;11.18;74.95
18500;BME280;9379;52.134;11.576;2023-04-20T08:42:34;101431.84;;;11.37;75.98
18500;BME280;9379;52.134;11.576;2023-04-20T08:45:02;101438.97;;;11.14;75.21
18500;BME280;9379;52.134;11.576;2023-04-20T08:47:32;101431.75;;;11.61;74.03
18500;BME280;9379;52.134;11.576;2023-04-20T08:49:59;101426.88;;;11.77;75.24
18500;BME280;9379;52.134;11.576;2023-04-20T08:52:28;101449.28;;;11.75;75.66
18500;BME280;9379;52.134;11.576;2023-04-20T08:54:55;101434.41;;;11.61;74.02
18500;BME280;9379;52.134;11.576;2023-04-20T08:57:22;101440.69;;;11.71;74.08
18500;BME280;9379;52.134;11.576;2023-04-20T08:59:50;101442.13;;;11.64;74.07
18500;BME280;9379;52.134;11.576;2023-04-20T09:02:17;101447.47;;;11.64;74.28
18500;BME280;9379;52.134;11.576;2023-04-20T09:04:45;101428.47;;;11.46;74.71
18500;BME280;9379;52.134;11.576;2023-04-20T09:07:17;101422.69;;;10.84;74.46
18500;BME280;9379;52.134;11.576;2023-04-20T09:09:54;101460.81;;;11.06;74.65
18500;BME280;9379;52.134;11.576;2023-04-20T09:12:22;101451.81;;;11.54;73.06
18500;BME280;9379;52.134;11.576;2023-04-20T09:14:50;101457.88;;;11.56;75.25
18500;BME280;9379;52.134;11.576;2023-04-20T09:17:29;101424.19;;;11.10;74.39
18500;BME280;9379;52.134;11.576;2023-04-20T09:19:58;101449.53;;;11.60;74.57
18500;BME280;9379;52.134;11.576;2023-04-20T09:22:30;101439.22;;;11.45;74.20
18500;BME280;9379;52.134;11.576;2023-04-20T09:25:00;101461.28;;;11.47;75.08
18500;BME280;9379;52.134;11.576;2023-04-20T09:27:37;101441.69;;;11.81;73.52
18500;BME280;9379;52.134;11.576;2023-04-20T09:30:06;101459.94;;;11.97;72.24
18500;BME280;9379;52.134;11.576;2023-04-20T09:32:36;101441.16;;;12.10;72.80
18500;BME280;9379;52.134;11.576;2023-04-20T09:35:05;101444.09;;;11.84;72.83
18500;BME280;9379;52.134;11.576;2023-04-20T09:37:33;101423.63;;;11.40;74.34
18500;BME280;9379;52.134;11.576;2023-04-20T09:40:00;101443.88;;;12.31;72.94
18500;BME280;9379;52.134;11.576;2023-04-20T09:42:29;101434.47;;;12.47;71.53
18500;BME280;9379;52.134;11.576;2023-04-20T09:44:59;101440.31;;;12.09;72.22
18500;BME280;9379;52.134;11.576;2023-04-20T09:47:30;101437.41;;;12.97;72.85
18500;BME280;9379;52.134;11.576;2023-04-20T09:50:01;101441.72;;;12.24;73.33
18500;BME280;9379;52.134;11.576;2023-04-20T09:52:32;101450.94;;;13.05;71.28
18500;BME280;9379;52.134;11.576;2023-04-20T09:55:04;101466.22;;;13.03;71.09
18500;BME280;9379;52.134;11.576;2023-04-20T09:57:32;101429.44;;;12.33;71.96
18500;BME280;9379;52.134;11.576;2023-04-20T10:00:01;101468.59;;;12.33;73.01
18500;BME280;9379;52.134;11.576;2023-04-20T10:02:30;101449.41;;;12.07;74.02
18500;BME280;9379;52.134;11.576;2023-04-20T10:04:57;101446.72;;;12.18;74.13
18500;BME280;9379;52.134;11.576;2023-04-20T10:07:26;101447.50;;;12.41;73.73
18500;BME280;9379;52.134;11.576;2023-04-20T10:10:09;101438.56;;;12.31;73.57
18500;BME280;9379;52.134;11.576;2023-04-20T10:12:47;101441.84;;;12.23;73.79
18500;BME280;9379;52.134;11.576;2023-04-20T10:15:14;101451.19;;;12.49;72.62
18500;BME280;9379;52.134;11.576;2023-04-20T10:17:42;101441.34;;;12.29;73.23
18500;BME280;9379;52.134;11.576;2023-04-20T10:20:20;101444.25;;;12.58;74.58
18500;BME280;9379;52.134;11.576;2023-04-20T10:22:48;101435.19;;;12.49;73.02
18500;BME280;9379;52.134;11.576;2023-04-20T10:25:17;101432.25;;;12.84;70.73
18500;BME280;9379;52.134;11.576;2023-04-20T10:27:52;101435.91;;;13.04;72.00
18500;BME280;9379;52.134;11.576;2023-04-20T10:30:20;101432.91;;;12.98;70.64
18500;BME280;9379;52.134;11.576;2023-04-20T10:32:47;101431.63;;;12.60;71.56
18500;BME280;9379;52.134;11.576;2023-04-20T10:35:15;101416.38;;;12.62;71.70
18500;BME280;9379;52.134;11.576;2023-04-20T10:37:49;101388.28;;;12.26;71.39
18500;BME280;9379;52.134;11.576;2023-04-20T10:40:24;101404.53;;;12.23;72.30
18500;BME280;9379;52.134;11.576;2023-04-20T10:42:51;101425.94;;;12.65;71.16
18500;BME280;9379;52.134;11.576;2023-04-20T10:45:18;101391.69;;;12.49;71.44
18500;BME280;9379;52.134;11.576;2023-04-20T10:47:49;101375.59;;;12.50;71.44
18500;BME280;9379;52.134;11.576;2023-04-20T10:50:16;101401.88;;;12.97;69.79
18500;BME280;9379;52.134;11.576;2023-04-20T10:52:46;101397.56;;;13.26;70.34
18500;BME280;9379;52.134;11.576;2023-04-20T10:55:20;101392.41;;;13.13;70.93
18500;BME280;9379;52.134;11.576;2023-04-20T10:57:47;101402.44;;;13.52;70.62
18500;BME280;9379;52.134;11.576;2023-04-20T11:00:16;101394.69;;;13.89;69.66
18500;BME280;9379;52.134;11.576;2023-04-20T11:02:50;101378.47;;;13.71;67.63
18500;BME280;9379;52.134;11.576;2023-04-20T11:05:18;101418.28;;;13.74;68.00
18500;BME280;9379;52.134;11.576;2023-04-20T11:07:54;101383.03;;;13.19;67.25
18500;BME280;9379;52.134;11.576;2023-04-20T11:10:37;101408.06;;;12.97;67.37
18500;BME280;9379;52.134;11.576;2023-04-20T11:13:04;101428.31;;;13.51;68.14
18500;BME280;9379;52.134;11.576;2023-04-20T11:15:32;101397.56;;;13.05;67.81
18500;BME280;9379;52.134;11.576;2023-04-20T11:18:06;101384.22;;;12.84;66.35
18500;BME280;9379;52.134;11.576;2023-04-20T11:20:33;101409.84;;;13.18;66.99
18500;BME280;9379;52.134;11.576;2023-04-20T11:23:00;101415.66;;;13.43;67.83
18500;BME280;9379;52.134;11.576;2023-04-20T11:25:33;101409.97;;;13.16;68.87
18500;BME280;9379;52.134;11.576;2023-04-20T11:28:04;101395.03;;;12.62;68.56
18500;BME280;9379;52.134;11.576;2023-04-20T11:30:37;101391.28;;;12.85;68.36
18500;BME280;9379;52.134;11.576;2023-04-20T11:33:08;101378.38;;;12.70;67.87
18500;BME280;9379;52.134;11.576;2023-04-20T11:35:35;101406.03;;;12.69;70.65
18500;BME280;9379;52.134;11.576;2023-04-20T11:38:03;101397.72;;;12.30;71.49
18500;BME280;9379;52.134;11.576;2023-04-20T11:40:35;101368.19;;;12.22;71.93
18500;BME280;9379;52.134;11.576;2023-04-20T11:43:02;101404.47;;;12.34;72.32
18500;BME280;9379;52.134;11.576;2023-04-20T11:45:31;101401.44;;;12.07;72.28
18500;BME280;9379;52.134;11.576;2023-04-20T11:47:59;101408.97;;;11.79;72.40
18500;BME280;9379;52.134;11.576;2023-04-20T11:50:26;101407.25;;;11.78;72.32
18500;BME280;9379;52.134;11.576;2023-04-20T11:52:53;101404.59;;;11.78;73.39
18500;BME280;9379;52.134;11.576;2023-04-20T11:55:20;101410.06;;;11.54;75.95
18500;BME280;9379;52.134;11.576;2023-04-20T11:57:48;101415.91;;;11.48;77.23
18500;BME280;9379;52.134;11.576;2023-04-20T12:00:16;101397.13;;;11.50;78.32
18500;BME280;9379;52.134;11.576;2023-04-20T12:02:44;101399.19;;;11.24;81.09
18500;BME280;9379;52.134;11.576;2023-04-20T12:05:14;101391.16;;;11.68;81.75
18500;BME280;9379;52.134;11.576;2023-04-20T12:07:41;101393.84;;;11.57;83.43
18500;BME280;9379;52.134;11.576;2023-04-20T12:10:08;101371.94;;;11.09;84.07
18500;BME280;9379;52.134;11.576;2023-04-20T12:12:36;101383.53;;;10.97;84.55
18500;BME280;9379;52.134;11.576;2023-04-20T12:15:09;101395.22;;;10.72;85.43
18500;BME280;9379;52.134;11.576;2023-04-20T12:17:38;101401.25;;;10.74;82.35
18500;BME280;9379;52.134;11.576;2023-04-20T12:20:07;101414.34;;;10.77;83.44
18500;BME280;9379;52.134;11.576;2023-04-20T12:22:36;101398.16;;;10.80;82.54
18500;BME280;9379;52.134;11.576;2023-04-20T12:25:04;101394.72;;;11.13;81.91
18500;BME280;9379;52.134;11.576;2023-04-20T12:27:31;101394.91;;;10.99;83.20
18500;BME280;9379;52.134;11.576;2023-04-20T12:29:59;101410.72;;;10.78;83.21
18500;BME280;9379;52.134;11.576;2023-04-20T12:32:27;101397.84;;;11.07;83.36
18500;BME280;9379;52.134;11.576;2023-04-20T12:34:57;101407.75;;;11.16;82.13
18500;BME280;9379;52.134;11.576;2023-04-20T12:37:24;101370.75;;;10.91;82.34
18500;BME280;9379;52.134;11.576;2023-04-20T12:39:52;101402.56;;;11.03;82.38
18500;BME280;9379;52.134;11.576;2023-04-20T12:42:22;101382.34;;;11.34;81.36
18500;BME280;9379;52.134;11.576;2023-04-20T12:44:51;101360.59;;;11.52;80.00
18500;BME280;9379;52.134;11.576;2023-04-20T12:47:20;101382.84;;;11.17;82.41
18500;BME280;9379;52.134;11.576;2023-04-20T12:49:49;101349.69;;;11.10;82.15
18500;BME280;9379;52.134;11.576;2023-04-20T12:52:16;101366.50;;;11.22;82.45
18500;BME280;9379;52.134;11.576;2023-04-20T12:54:45;101343.31;;;11.35;82.23
18500;BME280;9379;52.134;11.576;2023-04-20T12:57:12;101366.88;;;11.28;81.22
18500;BME280;9379;52.134;11.576;2023-04-20T12:59:39;101368.81;;;11.26;80.91
18500;BME280;9379;52.134;11.576;2023-04-20T13:02:07;101364.09;;;11.30;80.80
18500;BME280;9379;52.134;11.576;2023-04-20T13:04:34;101356.63;;;11.13;81.75